createdAt,value
2018-03-19T00:00:06.719Z,0.00
2018-03-19T00:01:06.695Z,0.00
2018-03-19T00:02:06.668Z,0.00
2018-03-19T00:03:06.645Z,0.00
2018-03-19T00:04:06.623Z,0.00
2018-03-19T00:05:06.609Z,0.00
2018-03-19T00:06:06.576Z,0.00
2018-03-19T00:07:06.557Z,0.00
2018-03-19T00:08:06.531Z,0.00
2018-03-19T00:09:06.509Z,0.00
2018-03-19T00:10:06.487Z,0.00
2018-03-19T00:11:06.467Z,0.00
2018-03-19T00:12:06.448Z,0.00
2018-03-19T00:13:06.416Z,0.00
2018-03-19T00:14:06.396Z,0.00
2018-03-19T00:15:06.374Z,0.00
2018-03-19T00:16:06.347Z,0.00
2018-03-19T00:17:06.325Z,0.00
2018-03-19T00:18:06.306Z,0.00
2018-03-19T00:19:06.289Z,0.00
2018-03-19T00:20:06.265Z,0.00
2018-03-19T00:21:06.236Z,0.00
2018-03-19T00:22:06.213Z,0.00
2018-03-19T00:23:06.190Z,0.00
2018-03-19T00:24:06.170Z,0.00
2018-03-19T00:25:06.146Z,0.00
2018-03-19T00:26:06.129Z,0.00
2018-03-19T00:27:06.106Z,0.00
2018-03-19T00:28:06.081Z,0.00
2018-03-19T00:29:06.059Z,0.00
2018-03-19T00:30:06.040Z,0.00
2018-03-19T00:31:06.017Z,0.00
2018-03-19T00:32:05.988Z,0.00
2018-03-19T00:33:05.966Z,0.00
2018-03-19T00:34:05.946Z,0.00
2018-03-19T00:35:05.920Z,0.00
2018-03-19T00:36:05.901Z,0.00
2018-03-19T00:37:05.879Z,0.00
2018-03-19T00:38:05.850Z,0.00
2018-03-19T00:39:05.835Z,0.00
2018-03-19T00:40:05.813Z,0.00
2018-03-19T00:41:05.784Z,0.00
2018-03-19T00:42:05.760Z,0.00
2018-03-19T00:43:05.738Z,0.00
2018-03-19T00:44:05.719Z,0.00
2018-03-19T00:45:05.693Z,0.00
2018-03-19T00:46:05.667Z,0.00
2018-03-19T00:47:05.649Z,0.00
2018-03-19T00:48:05.626Z,0.00
2018-03-19T00:49:05.600Z,0.00
2018-03-19T00:50:05.583Z,0.00
2018-03-19T00:51:05.562Z,0.00
2018-03-19T00:52:05.536Z,0.00
2018-03-19T00:53:05.510Z,0.00
2018-03-19T00:54:05.490Z,0.00
2018-03-19T00:55:05.472Z,0.00
2018-03-19T00:56:05.449Z,0.00
2018-03-19T00:57:05.424Z,0.00
2018-03-19T00:58:05.412Z,0.00
2018-03-19T00:59:05.380Z,0.00
2018-03-19T01:00:05.362Z,0.00
2018-03-19T01:01:05.329Z,0.00
2018-03-19T01:02:05.310Z,0.00
2018-03-19T01:03:05.288Z,0.00
2018-03-19T01:04:05.269Z,0.00
2018-03-19T01:05:05.240Z,0.00
2018-03-19T01:06:05.223Z,0.00
2018-03-19T01:07:05.205Z,0.00
2018-03-19T01:08:05.173Z,0.00
2018-03-19T01:09:05.154Z,0.00
2018-03-19T01:10:05.128Z,0.00
2018-03-19T01:11:05.105Z,0.00
2018-03-19T01:12:05.079Z,0.00
2018-03-19T01:13:05.061Z,0.00
2018-03-19T01:14:05.044Z,0.00
2018-03-19T01:15:05.013Z,0.00
2018-03-19T01:16:04.991Z,0.00
2018-03-19T01:17:04.971Z,0.00
2018-03-19T01:18:04.952Z,0.00
2018-03-19T01:19:04.930Z,0.00
2018-03-19T01:20:04.901Z,0.00
2018-03-19T01:21:04.888Z,0.00
2018-03-19T01:22:04.853Z,0.00
2018-03-19T01:23:04.834Z,0.00
2018-03-19T01:24:04.812Z,0.00
2018-03-19T01:25:04.786Z,0.00
2018-03-19T01:26:04.770Z,0.00
2018-03-19T01:27:04.748Z,0.00
2018-03-19T01:28:04.726Z,0.00
2018-03-19T01:29:04.700Z,0.00
2018-03-19T01:30:04.680Z,0.00
2018-03-19T01:31:04.657Z,0.00
2018-03-19T01:32:04.627Z,0.00
2018-03-19T01:33:04.605Z,0.00
2018-03-19T01:34:04.597Z,0.00
2018-03-19T01:35:04.561Z,0.00
2018-03-19T01:36:04.545Z,0.00
2018-03-19T01:37:04.519Z,0.00
2018-03-19T01:38:04.499Z,0.00
2018-03-19T01:39:04.476Z,0.00
2018-03-19T01:40:04.458Z,0.00
2018-03-19T01:41:04.435Z,0.00
2018-03-19T01:42:04.404Z,0.00
2018-03-19T01:43:04.386Z,0.00
2018-03-19T01:44:04.365Z,0.00
2018-03-19T01:45:04.342Z,0.00
2018-03-19T01:46:04.314Z,0.00
2018-03-19T01:47:04.294Z,0.00
2018-03-19T01:48:04.268Z,0.00
2018-03-19T01:49:04.245Z,0.00
2018-03-19T01:50:04.229Z,0.00
2018-03-19T01:51:04.204Z,0.00
2018-03-19T01:52:04.182Z,0.00
2018-03-19T01:53:04.154Z,0.00
2018-03-19T01:54:04.132Z,0.00
2018-03-19T01:55:04.117Z,0.00
2018-03-19T01:56:04.087Z,0.00
2018-03-19T01:57:04.064Z,0.00
2018-03-19T01:58:04.042Z,0.00
2018-03-19T01:59:04.021Z,0.00
2018-03-19T02:00:03.997Z,0.00
2018-03-19T02:01:03.998Z,0.00
2018-03-19T02:02:03.958Z,0.00
2018-03-19T02:03:03.929Z,0.00
2018-03-19T02:04:03.913Z,0.00
2018-03-19T02:05:03.881Z,0.00
2018-03-19T02:06:03.863Z,0.00
2018-03-19T02:07:03.839Z,0.00
2018-03-19T02:08:03.820Z,0.00
2018-03-19T02:09:03.793Z,0.00
2018-03-19T02:10:03.772Z,0.00
2018-03-19T02:11:03.750Z,0.00
2018-03-19T02:12:03.726Z,0.00
2018-03-19T02:13:03.700Z,0.00
2018-03-19T02:14:03.678Z,0.00
2018-03-19T02:15:03.662Z,0.00
2018-03-19T02:16:03.640Z,0.00
2018-03-19T02:17:03.614Z,0.00
2018-03-19T02:18:03.594Z,0.00
2018-03-19T02:19:03.574Z,0.00
2018-03-19T02:20:03.543Z,0.00
2018-03-19T02:21:03.523Z,0.00
2018-03-19T02:22:03.499Z,0.00
2018-03-19T02:23:03.482Z,0.00
2018-03-19T02:24:03.501Z,0.00
2018-03-19T02:25:03.428Z,0.00
2018-03-19T02:26:03.406Z,0.00
2018-03-19T02:27:03.384Z,0.00
2018-03-19T02:28:03.361Z,0.00
2018-03-19T02:29:03.344Z,0.00
2018-03-19T02:30:03.328Z,0.00
2018-03-19T02:31:03.300Z,0.00
2018-03-19T02:32:03.274Z,0.00
2018-03-19T02:33:03.256Z,0.00
2018-03-19T02:34:03.227Z,0.00
2018-03-19T02:35:03.208Z,0.00
2018-03-19T02:36:03.184Z,0.00
2018-03-19T02:37:03.162Z,0.00
2018-03-19T02:38:03.143Z,0.00
2018-03-19T02:39:03.118Z,0.00
2018-03-19T02:40:03.092Z,0.00
2018-03-19T02:41:03.069Z,0.00
2018-03-19T02:42:03.048Z,0.00
2018-03-19T02:43:03.027Z,0.00
2018-03-19T02:44:03.000Z,0.00
2018-03-19T02:45:02.985Z,0.00
2018-03-19T02:46:02.961Z,0.00
2018-03-19T02:47:02.930Z,0.00
2018-03-19T02:48:02.914Z,0.00
2018-03-19T02:49:02.888Z,0.00
2018-03-19T02:50:02.891Z,0.00
2018-03-19T02:51:02.840Z,0.00
2018-03-19T02:52:02.822Z,0.00
2018-03-19T02:53:02.797Z,0.00
2018-03-19T02:54:02.774Z,0.00
2018-03-19T02:55:02.752Z,0.00
2018-03-19T02:56:02.730Z,0.00
2018-03-19T02:57:02.706Z,0.00
2018-03-19T02:58:02.688Z,0.00
2018-03-19T02:59:02.658Z,0.00
2018-03-19T03:00:02.641Z,0.00
2018-03-19T03:01:02.623Z,0.00
2018-03-19T03:02:02.595Z,0.00
2018-03-19T03:03:02.568Z,0.00
2018-03-19T03:04:02.555Z,0.00
2018-03-19T03:05:02.525Z,0.00
2018-03-19T03:06:02.509Z,0.00
2018-03-19T03:07:02.479Z,0.00
2018-03-19T03:08:02.464Z,0.00
2018-03-19T03:09:02.437Z,0.00
2018-03-19T03:10:02.414Z,0.00
2018-03-19T03:11:02.387Z,0.00
2018-03-19T03:12:02.375Z,0.00
2018-03-19T03:13:02.981Z,0.00
2018-03-19T03:14:02.323Z,0.00
2018-03-19T03:15:02.298Z,0.00
2018-03-19T03:16:02.295Z,0.00
2018-03-19T03:17:02.253Z,0.00
2018-03-19T03:18:02.237Z,0.00
2018-03-19T03:19:02.208Z,0.00
2018-03-19T03:20:02.186Z,0.00
2018-03-19T03:21:02.161Z,0.00
2018-03-19T03:22:02.138Z,0.00
2018-03-19T03:23:02.116Z,0.00
2018-03-19T03:24:02.097Z,0.00
2018-03-19T03:25:02.119Z,0.00
2018-03-19T03:26:02.049Z,0.00
2018-03-19T03:27:02.062Z,0.00
2018-03-19T03:28:02.017Z,0.00
2018-03-19T03:29:01.987Z,0.00
2018-03-19T03:30:01.965Z,0.00
2018-03-19T03:31:01.948Z,0.00
2018-03-19T03:32:01.913Z,0.00
2018-03-19T03:33:01.904Z,0.00
2018-03-19T03:34:01.877Z,0.00
2018-03-19T03:35:01.853Z,0.00
2018-03-19T03:36:01.820Z,0.00
2018-03-19T03:37:01.801Z,0.00
2018-03-19T03:38:01.776Z,0.00
2018-03-19T03:39:01.758Z,0.00
2018-03-19T03:40:01.738Z,0.00
2018-03-19T03:41:01.710Z,0.00
2018-03-19T03:42:01.687Z,0.00
2018-03-19T03:43:01.665Z,0.00
2018-03-19T03:44:01.642Z,0.00
2018-03-19T03:45:01.623Z,0.00
2018-03-19T03:46:01.597Z,0.00
2018-03-19T03:47:01.571Z,0.00
2018-03-19T03:48:01.549Z,0.00
2018-03-19T03:49:01.533Z,0.00
2018-03-19T03:50:01.561Z,0.00
2018-03-19T03:51:01.492Z,0.00
2018-03-19T03:52:01.462Z,0.00
2018-03-19T03:53:01.442Z,0.00
2018-03-19T03:54:01.424Z,0.00
2018-03-19T03:55:01.395Z,0.00
2018-03-19T03:56:01.381Z,0.00
2018-03-19T03:57:01.342Z,0.00
2018-03-19T03:58:01.320Z,0.00
2018-03-19T03:59:01.307Z,0.00
2018-03-19T04:00:01.276Z,0.00
2018-03-19T04:01:01.256Z,0.00
2018-03-19T04:02:01.230Z,0.00
2018-03-19T04:03:01.208Z,0.00
2018-03-19T04:04:01.192Z,0.00
2018-03-19T04:05:01.167Z,0.00
2018-03-19T04:06:01.147Z,0.00
2018-03-19T04:07:01.118Z,0.00
2018-03-19T04:08:01.102Z,0.00
2018-03-19T04:09:01.071Z,0.00
2018-03-19T04:10:01.048Z,0.00
2018-03-19T04:11:01.032Z,0.00
2018-03-19T04:12:01.003Z,0.00
2018-03-19T04:13:00.986Z,0.00
2018-03-19T04:14:00.952Z,0.00
2018-03-19T04:15:00.936Z,0.00
2018-03-19T04:16:00.910Z,0.00
2018-03-19T04:17:00.888Z,0.00
2018-03-19T04:18:00.881Z,0.00
2018-03-19T04:19:00.843Z,0.00
2018-03-19T04:20:00.821Z,0.00
2018-03-19T04:21:00.804Z,0.00
2018-03-19T04:22:00.778Z,0.00
2018-03-19T04:23:00.753Z,0.00
2018-03-19T04:24:00.730Z,0.00
2018-03-19T04:25:00.711Z,0.00
2018-03-19T04:26:00.689Z,0.00
2018-03-19T04:27:00.663Z,0.00
2018-03-19T04:28:00.645Z,0.00
2018-03-19T04:29:00.618Z,0.00
2018-03-19T04:30:00.594Z,0.00
2018-03-19T04:31:00.572Z,0.00
2018-03-19T04:32:00.546Z,0.00
2018-03-19T04:33:00.527Z,0.00
2018-03-19T04:34:00.502Z,0.00
2018-03-19T04:35:00.486Z,0.00
2018-03-19T04:36:00.457Z,0.00
2018-03-19T04:37:00.438Z,0.00
2018-03-19T04:38:00.415Z,0.00
2018-03-19T04:39:00.386Z,0.00
2018-03-19T04:40:00.368Z,0.00
2018-03-19T04:41:00.348Z,0.00
2018-03-19T04:42:00.320Z,0.00
2018-03-19T04:43:00.350Z,0.00
2018-03-19T04:44:00.281Z,0.00
2018-03-19T04:45:00.249Z,0.00
2018-03-19T04:46:00.226Z,0.00
2018-03-19T04:47:00.208Z,0.00
2018-03-19T04:48:00.182Z,0.00
2018-03-19T04:49:00.160Z,0.00
2018-03-19T04:50:00.134Z,0.00
2018-03-19T04:51:00.112Z,0.00
2018-03-19T04:52:00.096Z,0.00
2018-03-19T04:53:00.090Z,0.00
2018-03-19T04:54:00.045Z,0.00
2018-03-19T04:55:00.025Z,0.00
2018-03-19T04:56:00.006Z,0.00
2018-03-19T04:56:59.975Z,0.00
2018-03-19T04:57:59.953Z,0.00
2018-03-19T04:58:59.936Z,0.00
2018-03-19T04:59:59.908Z,0.00
2018-03-19T05:00:59.883Z,0.00
2018-03-19T05:01:59.864Z,0.00
2018-03-19T05:02:59.838Z,0.00
2018-03-19T05:03:59.837Z,0.00
2018-03-19T05:04:59.794Z,0.00
2018-03-19T05:05:59.771Z,0.00
2018-03-19T05:06:59.755Z,0.00
2018-03-19T05:07:59.726Z,0.00
2018-03-19T05:08:59.704Z,0.00
2018-03-19T05:09:59.691Z,0.00
2018-03-19T05:10:59.659Z,4.00
2018-03-19T05:11:59.633Z,4.00
2018-03-19T05:12:59.611Z,0.00
2018-03-19T05:13:59.591Z,4.00
2018-03-19T05:14:59.565Z,4.00
2018-03-19T05:15:59.548Z,4.00
2018-03-19T05:16:59.526Z,4.00
2018-03-19T05:17:59.495Z,4.00
2018-03-19T05:18:59.472Z,8.00
2018-03-19T05:19:59.456Z,8.00
2018-03-19T05:20:59.430Z,8.00
2018-03-19T05:21:59.408Z,12.00
2018-03-19T05:22:59.390Z,12.00
2018-03-19T05:23:59.357Z,12.00
2018-03-19T05:24:59.337Z,16.00
2018-03-19T05:25:59.317Z,16.00
2018-03-19T05:26:59.297Z,20.00
2018-03-19T05:27:59.275Z,24.00
2018-03-19T05:28:59.249Z,24.00
2018-03-19T05:29:59.230Z,28.00
2018-03-19T05:30:59.208Z,32.00
2018-03-19T05:31:59.178Z,36.00
2018-03-19T05:32:59.159Z,40.00
2018-03-19T05:33:59.134Z,44.00
2018-03-19T05:34:59.208Z,48.00
2018-03-19T05:35:59.085Z,48.00
2018-03-19T05:36:59.066Z,52.00
2018-03-19T05:37:59.040Z,56.00
2018-03-19T05:38:59.021Z,64.00
2018-03-19T05:39:58.994Z,68.00
2018-03-19T05:40:58.976Z,68.00
2018-03-19T05:41:58.947Z,72.00
2018-03-19T05:42:58.930Z,76.00
2018-03-19T05:43:58.902Z,84.00
2018-03-19T05:44:58.882Z,84.00
2018-03-19T05:45:58.863Z,92.00
2018-03-19T05:46:58.841Z,96.00
2018-03-19T05:47:58.812Z,100.00
2018-03-19T05:48:58.786Z,112.00
2018-03-19T05:49:58.767Z,120.00
2018-03-19T05:50:58.741Z,128.00
2018-03-19T05:51:58.719Z,136.00
2018-03-19T05:52:58.715Z,140.00
2018-03-19T05:53:58.677Z,152.00
2018-03-19T05:54:58.652Z,164.00
2018-03-19T05:55:58.626Z,176.00
2018-03-19T05:56:58.604Z,196.00
2018-03-19T05:57:58.581Z,212.00
2018-03-19T05:58:58.559Z,228.00
2018-03-19T05:59:58.543Z,236.00
2018-03-19T06:00:58.511Z,252.00
2018-03-19T06:01:58.488Z,264.00
2018-03-19T06:02:58.473Z,280.00
2018-03-19T06:03:58.444Z,288.00
2018-03-19T06:04:58.424Z,300.00
2018-03-19T06:05:58.405Z,316.00
2018-03-19T06:06:58.375Z,328.00
2018-03-19T06:07:58.359Z,344.00
2018-03-19T06:08:58.334Z,356.00
2018-03-19T06:09:58.305Z,364.00
2018-03-19T06:10:58.289Z,372.00
2018-03-19T06:11:58.260Z,380.00
2018-03-19T06:12:58.238Z,388.00
2018-03-19T06:13:58.216Z,404.00
2018-03-19T06:14:58.192Z,420.00
2018-03-19T06:15:58.169Z,428.00
2018-03-19T06:16:58.143Z,440.00
2018-03-19T06:17:58.121Z,452.00
2018-03-19T06:18:58.102Z,472.00
2018-03-19T06:19:58.076Z,484.00
2018-03-19T06:20:58.081Z,500.00
2018-03-19T06:21:58.038Z,512.00
2018-03-19T06:22:58.021Z,524.00
2018-03-19T06:23:57.987Z,536.00
2018-03-19T06:24:57.968Z,548.00
2018-03-19T06:25:57.943Z,564.00
2018-03-19T06:26:57.921Z,572.00
2018-03-19T06:27:57.895Z,576.00
2018-03-19T06:28:57.879Z,584.00
2018-03-19T06:29:57.849Z,596.00
2018-03-19T06:30:57.827Z,612.00
2018-03-19T06:31:57.808Z,624.00
2018-03-19T06:32:57.783Z,640.00
2018-03-19T06:33:57.757Z,660.00
2018-03-19T06:34:57.741Z,684.00
2018-03-19T06:35:57.712Z,712.00
2018-03-19T06:36:57.696Z,744.00
2018-03-19T06:37:57.668Z,772.00
2018-03-19T06:38:57.648Z,796.00
2018-03-19T06:39:57.626Z,812.00
2018-03-19T06:40:57.659Z,836.00
2018-03-19T06:41:57.579Z,864.00
2018-03-19T06:42:57.556Z,892.00
2018-03-19T06:43:57.540Z,920.00
2018-03-19T06:44:57.511Z,948.00
2018-03-19T06:45:57.489Z,984.00
2018-03-19T06:46:57.461Z,1016.00
2018-03-19T06:47:57.442Z,1052.00
2018-03-19T06:48:57.463Z,1092.00
2018-03-19T06:49:57.398Z,1132.00
2018-03-19T06:50:57.374Z,1164.00
2018-03-19T06:51:57.346Z,1196.00
2018-03-19T06:52:57.330Z,1224.00
2018-03-19T06:53:57.301Z,1244.00
2018-03-19T06:54:57.282Z,1264.00
2018-03-19T06:55:57.263Z,1292.00
2018-03-19T06:56:57.237Z,1316.00
2018-03-19T06:57:57.212Z,1336.00
2018-03-19T06:58:57.194Z,1340.00
2018-03-19T06:59:57.166Z,1336.00
2018-03-19T07:00:57.160Z,1336.00
2018-03-19T07:01:57.123Z,1328.00
2018-03-19T07:02:57.101Z,1312.00
2018-03-19T07:03:57.079Z,1304.00
2018-03-19T07:04:57.058Z,1304.00
2018-03-19T07:05:57.031Z,1328.00
2018-03-19T07:06:57.008Z,1368.00
2018-03-19T07:07:56.987Z,1400.00
2018-03-19T07:08:56.965Z,1428.00
2018-03-19T07:09:56.939Z,1452.00
2018-03-19T07:10:56.916Z,1476.00
2018-03-19T07:11:56.891Z,1504.00
2018-03-19T07:12:56.875Z,1516.00
2018-03-19T07:13:56.849Z,1512.00
2018-03-19T07:14:56.824Z,1504.00
2018-03-19T07:15:56.804Z,1496.00
2018-03-19T07:16:56.781Z,1492.00
2018-03-19T07:17:56.753Z,1488.00
2018-03-19T07:18:56.734Z,1496.00
2018-03-19T07:19:56.713Z,1504.00
2018-03-19T07:20:56.690Z,1512.00
2018-03-19T07:21:56.670Z,1516.00
2018-03-19T07:22:56.644Z,1532.00
2018-03-19T07:23:56.622Z,1572.00
2018-03-19T07:24:56.600Z,1612.00
2018-03-19T07:25:56.581Z,1644.00
2018-03-19T07:26:56.553Z,1648.00
2018-03-19T07:27:56.527Z,1640.00
2018-03-19T07:28:56.505Z,1616.00
2018-03-19T07:29:56.486Z,1592.00
2018-03-19T07:30:56.457Z,1580.00
2018-03-19T07:31:56.435Z,1596.00
2018-03-19T07:32:56.409Z,1656.00
2018-03-19T07:33:56.387Z,1732.00
2018-03-19T07:34:56.371Z,1792.00
2018-03-19T07:35:56.347Z,1812.00
2018-03-19T07:36:56.320Z,1836.00
2018-03-19T07:37:56.305Z,1864.00
2018-03-19T07:38:56.281Z,1896.00
2018-03-19T07:39:56.256Z,1908.00
2018-03-19T07:40:56.352Z,1896.00
2018-03-19T07:41:56.211Z,1868.00
2018-03-19T07:42:56.188Z,1836.00
2018-03-19T07:43:56.162Z,1828.00
2018-03-19T07:44:56.137Z,1840.00
2018-03-19T07:45:56.114Z,1872.00
2018-03-19T07:46:56.089Z,1908.00
2018-03-19T07:47:56.066Z,1944.00
2018-03-19T07:48:56.044Z,1996.00
2018-03-19T07:49:56.031Z,2064.00
2018-03-19T07:50:55.999Z,2164.00
2018-03-19T07:51:55.983Z,2280.00
2018-03-19T07:52:55.960Z,2396.00
2018-03-19T07:53:55.931Z,2500.00
2018-03-19T07:54:55.910Z,2564.00
2018-03-19T07:55:55.893Z,2588.00
2018-03-19T07:56:55.860Z,2588.00
2018-03-19T07:57:55.841Z,2556.00
2018-03-19T07:58:55.820Z,2516.00
2018-03-19T07:59:55.800Z,2476.00
2018-03-19T08:00:55.776Z,2448.00
2018-03-19T08:01:55.750Z,2444.00
2018-03-19T08:02:55.728Z,2480.00
2018-03-19T08:03:55.709Z,2540.00
2018-03-19T08:04:55.683Z,2616.00
2018-03-19T08:05:55.658Z,2696.00
2018-03-19T08:06:55.635Z,2756.00
2018-03-19T08:07:55.613Z,2800.00
2018-03-19T08:08:55.587Z,2828.00
2018-03-19T08:09:55.565Z,2824.00
2018-03-19T08:10:55.542Z,2792.00
2018-03-19T08:11:55.523Z,2736.00
2018-03-19T08:12:55.507Z,2676.00
2018-03-19T08:13:55.479Z,2636.00
2018-03-19T08:14:55.453Z,2616.00
2018-03-19T08:15:55.434Z,2584.00
2018-03-19T08:16:55.412Z,2568.00
2018-03-19T08:17:55.386Z,2560.00
2018-03-19T08:18:55.367Z,2556.00
2018-03-19T08:19:55.342Z,2564.00
2018-03-19T08:20:55.316Z,2596.00
2018-03-19T08:21:55.294Z,2640.00
2018-03-19T08:22:55.278Z,2708.00
2018-03-19T08:23:55.255Z,2800.00
2018-03-19T08:24:55.226Z,2900.00
2018-03-19T08:25:55.209Z,2996.00
2018-03-19T08:26:55.182Z,3084.00
2018-03-19T08:27:55.160Z,3152.00
2018-03-19T08:28:55.134Z,3224.00
2018-03-19T08:29:55.112Z,3312.00
2018-03-19T08:30:55.658Z,3400.00
2018-03-19T08:31:55.067Z,3480.00
2018-03-19T08:32:55.045Z,3544.00
2018-03-19T08:33:55.029Z,3608.00
2018-03-19T08:34:55.006Z,3660.00
2018-03-19T08:35:54.986Z,3704.00
2018-03-19T08:36:54.960Z,3752.00
2018-03-19T08:37:54.940Z,3780.00
2018-03-19T08:38:54.911Z,3880.00
2018-03-19T08:39:54.888Z,3932.00
2018-03-19T08:40:54.863Z,3972.00
2018-03-19T08:41:54.846Z,4004.00
2018-03-19T08:42:54.837Z,4064.00
2018-03-19T08:43:54.799Z,4168.00
2018-03-19T08:44:54.785Z,4268.00
2018-03-19T08:45:54.756Z,4308.00
2018-03-19T08:46:54.733Z,4308.00
2018-03-19T08:47:54.760Z,4280.00
2018-03-19T08:48:54.685Z,4244.00
2018-03-19T08:49:54.670Z,4236.00
2018-03-19T08:50:54.644Z,4236.00
2018-03-19T08:51:54.625Z,4236.00
2018-03-19T08:52:54.596Z,4248.00
2018-03-19T08:53:54.581Z,4280.00
2018-03-19T08:54:54.556Z,4324.00
2018-03-19T08:55:54.533Z,4364.00
2018-03-19T08:56:54.514Z,4408.00
2018-03-19T08:57:54.485Z,4464.00
2018-03-19T08:58:54.469Z,4520.00
2018-03-19T08:59:54.442Z,4580.00
2018-03-19T09:00:54.418Z,4632.00
2018-03-19T09:01:54.395Z,4680.00
2018-03-19T09:02:54.380Z,4756.00
2018-03-19T09:03:54.357Z,4856.00
2018-03-19T09:04:54.328Z,5000.00
2018-03-19T09:05:54.312Z,5156.00
2018-03-19T09:06:54.286Z,5272.00
2018-03-19T09:07:54.273Z,5288.00
2018-03-19T09:08:54.246Z,5272.00
2018-03-19T09:09:54.222Z,5264.00
2018-03-19T09:10:54.197Z,5296.00
2018-03-19T09:11:54.186Z,5356.00
2018-03-19T09:12:54.154Z,5460.00
2018-03-19T09:13:54.128Z,5576.00
2018-03-19T09:14:54.115Z,5652.00
2018-03-19T09:15:54.086Z,5652.00
2018-03-19T09:16:54.071Z,5616.00
2018-03-19T09:17:54.047Z,5624.00
2018-03-19T09:18:54.019Z,5696.00
2018-03-19T09:19:53.997Z,5780.00
2018-03-19T09:20:53.974Z,5860.00
2018-03-19T09:21:53.955Z,5964.00
2018-03-19T09:22:53.939Z,6112.00
2018-03-19T09:23:53.911Z,6244.00
2018-03-19T09:24:53.897Z,6280.00
2018-03-19T09:25:53.866Z,6312.00
2018-03-19T09:26:53.843Z,6420.00
2018-03-19T09:27:53.820Z,6556.00
2018-03-19T09:28:53.808Z,6636.00
2018-03-19T09:29:53.779Z,6628.00
2018-03-19T09:30:54.256Z,6596.00
2018-03-19T09:31:53.735Z,6520.00
2018-03-19T09:32:53.712Z,6464.00
2018-03-19T09:33:53.695Z,6472.00
2018-03-19T09:34:53.667Z,6584.00
2018-03-19T09:35:53.650Z,6760.00
2018-03-19T09:36:53.625Z,6980.00
2018-03-19T09:37:53.609Z,7152.00
2018-03-19T09:38:53.588Z,7300.00
2018-03-19T09:39:53.560Z,7452.00
2018-03-19T09:40:53.544Z,7444.00
2018-03-19T09:41:53.516Z,7464.00
2018-03-19T09:42:53.494Z,7580.00
2018-03-19T09:43:53.486Z,7752.00
2018-03-19T09:44:53.452Z,7880.00
2018-03-19T09:45:53.439Z,7900.00
2018-03-19T09:46:53.413Z,7864.00
2018-03-19T09:47:53.392Z,7808.00
2018-03-19T09:48:53.364Z,7744.00
2018-03-19T09:49:53.344Z,7672.00
2018-03-19T09:50:53.322Z,7672.00
2018-03-19T09:51:53.303Z,7724.00
2018-03-19T09:52:53.286Z,7844.00
2018-03-19T09:53:53.258Z,7900.00
2018-03-19T09:54:53.239Z,8000.00
2018-03-19T09:55:53.219Z,8084.00
2018-03-19T09:56:53.197Z,7940.00
2018-03-19T09:57:53.172Z,7940.00
2018-03-19T09:58:53.156Z,8104.00
2018-03-19T09:59:53.153Z,8192.00
2018-03-19T10:00:53.112Z,8208.00
2018-03-19T10:01:53.086Z,8280.00
2018-03-19T10:02:53.070Z,8352.00
2018-03-19T10:03:53.050Z,8632.00
2018-03-19T10:04:53.022Z,8476.00
2018-03-19T10:05:53.012Z,9136.00
2018-03-19T10:06:52.991Z,10664.00
2018-03-19T10:07:52.964Z,10864.00
2018-03-19T10:08:52.935Z,11900.00
2018-03-19T10:09:52.920Z,16576.00
2018-03-19T10:10:52.897Z,18336.00
2018-03-19T10:11:52.881Z,19680.00
2018-03-19T10:12:52.858Z,20864.00
2018-03-19T10:13:52.833Z,20192.00
2018-03-19T10:14:52.814Z,18528.00
2018-03-19T10:15:52.792Z,20000.00
2018-03-19T10:16:52.776Z,21664.00
2018-03-19T10:17:52.753Z,22144.00
2018-03-19T10:18:52.729Z,22176.00
2018-03-19T10:19:52.712Z,23200.00
2018-03-19T10:20:52.688Z,23360.00
2018-03-19T10:21:52.667Z,22592.00
2018-03-19T10:22:52.648Z,22816.00
2018-03-19T10:23:52.636Z,24096.00
2018-03-19T10:24:52.616Z,26592.00
2018-03-19T10:25:52.604Z,26112.00
2018-03-19T10:26:52.579Z,25696.00
2018-03-19T10:27:52.553Z,22656.00
2018-03-19T10:28:52.534Z,25792.00
2018-03-19T10:29:52.515Z,26880.00
2018-03-19T10:30:52.499Z,27360.00
2018-03-19T10:31:52.483Z,25920.00
2018-03-19T10:32:52.467Z,21248.00
2018-03-19T10:33:52.444Z,24800.00
2018-03-19T10:34:52.426Z,25216.00
2018-03-19T10:35:52.406Z,25408.00
2018-03-19T10:36:52.395Z,26144.00
2018-03-19T10:37:52.378Z,26368.00
2018-03-19T10:38:52.357Z,26400.00
2018-03-19T10:39:52.356Z,26880.00
2018-03-19T10:40:52.325Z,27680.00
2018-03-19T10:41:52.302Z,28576.00
2018-03-19T10:42:52.290Z,29536.00
2018-03-19T10:43:52.277Z,30432.00
2018-03-19T10:44:52.251Z,31040.00
2018-03-19T10:45:52.276Z,31648.00
2018-03-19T10:46:52.225Z,31456.00
2018-03-19T10:47:52.209Z,31872.00
2018-03-19T10:48:52.185Z,32832.00
2018-03-19T10:49:52.234Z,32768.00
2018-03-19T10:50:52.159Z,32416.00
2018-03-19T10:51:52.147Z,31456.00
2018-03-19T10:52:52.183Z,30752.00
2018-03-19T10:53:52.108Z,32256.00
2018-03-19T10:54:52.149Z,34240.00
2018-03-19T10:55:52.073Z,35392.00
2018-03-19T10:56:52.060Z,36288.00
2018-03-19T10:57:52.056Z,36864.00
2018-03-19T10:58:52.064Z,36992.00
2018-03-19T10:59:52.030Z,38560.00
2018-03-19T11:00:52.006Z,40832.00
2018-03-19T11:01:51.993Z,40384.00
2018-03-19T11:02:51.976Z,41472.00
2018-03-19T11:03:51.963Z,41792.00
2018-03-19T11:04:51.960Z,42944.00
2018-03-19T11:05:51.937Z,42016.00
2018-03-19T11:06:51.932Z,41696.00
2018-03-19T11:07:51.906Z,41344.00
2018-03-19T11:08:51.890Z,39328.00
2018-03-19T11:09:51.883Z,39040.00
2018-03-19T11:10:51.878Z,39008.00
2018-03-19T11:11:51.888Z,40608.00
2018-03-19T11:12:51.896Z,39872.00
2018-03-19T11:13:51.829Z,32416.00
2018-03-19T11:14:51.823Z,34432.00
2018-03-19T11:15:51.808Z,39552.00
2018-03-19T11:16:51.792Z,39968.00
2018-03-19T11:17:51.783Z,41088.00
2018-03-19T11:18:51.760Z,39680.00
2018-03-19T11:19:51.759Z,39648.00
2018-03-19T11:20:51.745Z,41696.00
2018-03-19T11:21:51.729Z,42336.00
2018-03-19T11:22:51.709Z,45184.00
2018-03-19T11:23:51.708Z,45632.00
2018-03-19T11:24:51.684Z,44352.00
2018-03-19T11:25:51.698Z,41888.00
2018-03-19T11:26:51.668Z,42176.00
2018-03-19T11:27:51.656Z,42624.00
2018-03-19T11:28:51.639Z,38816.00
2018-03-19T11:29:51.627Z,46400.00
2018-03-19T11:30:51.620Z,36416.00
2018-03-19T11:31:51.607Z,41120.00
2018-03-19T11:32:51.617Z,55712.00
2018-03-19T11:33:51.598Z,55040.00
2018-03-19T11:34:51.575Z,55104.00
2018-03-19T11:35:51.559Z,43840.00
2018-03-19T11:36:51.546Z,29600.00
2018-03-19T11:37:51.543Z,31872.00
2018-03-19T11:38:51.530Z,30272.00
2018-03-19T11:39:51.523Z,42240.00
2018-03-19T11:40:51.508Z,51808.00
2018-03-19T11:41:51.527Z,39616.00
2018-03-19T11:42:51.492Z,40032.00
2018-03-19T11:43:51.491Z,36672.00
2018-03-19T11:44:51.465Z,43360.00
2018-03-19T11:45:51.457Z,44640.00
2018-03-19T11:46:51.440Z,45952.00
2018-03-19T11:47:51.431Z,46560.00
2018-03-19T11:48:51.418Z,38592.00
2018-03-19T11:49:51.412Z,30752.00
2018-03-19T11:50:51.406Z,25824.00
2018-03-19T11:51:51.396Z,24704.00
2018-03-19T11:52:51.384Z,26336.00
2018-03-19T11:53:51.370Z,27360.00
2018-03-19T11:54:51.364Z,26016.00
2018-03-19T11:55:51.356Z,32416.00
2018-03-19T11:56:51.342Z,39584.00
2018-03-19T11:57:51.319Z,37920.00
2018-03-19T11:58:51.319Z,38112.00
2018-03-19T11:59:51.306Z,42656.00
2018-03-19T12:00:51.294Z,49568.00
2018-03-19T12:01:51.284Z,44064.00
2018-03-19T12:02:51.268Z,44768.00
2018-03-19T12:03:51.258Z,28992.00
2018-03-19T12:04:51.265Z,26528.00
2018-03-19T12:05:51.238Z,25120.00
2018-03-19T12:06:51.232Z,24160.00
2018-03-19T12:07:51.213Z,23264.00
2018-03-19T12:08:51.208Z,22432.00
2018-03-19T12:09:51.196Z,22176.00
2018-03-19T12:10:51.183Z,21728.00
2018-03-19T12:11:51.168Z,22240.00
2018-03-19T12:12:51.168Z,24160.00
2018-03-19T12:13:51.155Z,25440.00
2018-03-19T12:14:51.126Z,28192.00
2018-03-19T12:15:51.122Z,26080.00
2018-03-19T12:16:51.107Z,27456.00
2018-03-19T12:17:51.087Z,28576.00
2018-03-19T12:18:51.080Z,28224.00
2018-03-19T12:19:51.056Z,28352.00
2018-03-19T12:20:51.048Z,28352.00
2018-03-19T12:21:51.034Z,29568.00
2018-03-19T12:22:51.017Z,28800.00
2018-03-19T12:23:50.998Z,29056.00
2018-03-19T12:24:50.984Z,34720.00
2018-03-19T12:25:50.968Z,35072.00
2018-03-19T12:26:50.966Z,29984.00
2018-03-19T12:27:50.942Z,27840.00
2018-03-19T12:28:50.933Z,26528.00
2018-03-19T12:29:50.925Z,25920.00
2018-03-19T12:30:50.907Z,26112.00
2018-03-19T12:31:50.888Z,25856.00
2018-03-19T12:32:50.878Z,26688.00